Time;durP1;ratioP1;P1;durP2;ratioP2;P2;SDS_P1;SDS_P2;PMS_P1;PMS_P2;Temp;Humidity;BMP_temperature;BMP_pressure;BME280_temperature;BME280_humidity;BME280_pressure;Samples;Min_cycle;Max_cycle;Signal;HPM_P1;HPM_P2
2022/06/08 00:01:20;;;;;;;1.67;1.57;;;20.00;99.90;;;;;;5050512;28;20450;-68
2022/06/08 00:03:56;;;;;;;1.63;1.53;;;20.10;99.90;;;;;;5066704;28;20451;-68
2022/06/08 00:06:22;;;;;;;1.50;1.40;;;20.10;99.90;;;;;;5052153;28;20455;-68
2022/06/08 00:08:48;;;;;;;2.17;2.00;;;20.10;99.90;;;;;;5085631;28;20966;-68
2022/06/08 00:11:14;;;;;;;1.47;1.37;;;20.10;99.90;;;;;;5075426;28;20264;-68
2022/06/08 00:13:42;;;;;;;2.03;1.60;;;20.00;99.90;;;;;;5069519;28;20746;-68
2022/06/08 00:16:09;;;;;;;1.77;1.67;;;20.00;99.90;;;;;;5075012;28;20460;-70
2022/06/08 00:18:35;;;;;;;2.50;1.40;;;20.00;99.90;;;;;;5069789;28;20445;-68
2022/06/08 00:21:01;;;;;;;1.90;1.70;;;20.00;99.90;;;;;;5082109;28;20473;-68
2022/06/08 00:23:26;;;;;;;1.70;1.60;;;20.00;99.90;;;;;;5065288;28;20244;-70
2022/06/08 00:25:52;;;;;;;1.83;1.70;;;19.90;99.90;;;;;;5078190;28;20480;-67
2022/06/08 00:28:18;;;;;;;3.10;1.87;;;19.80;99.90;;;;;;5069749;28;20219;-69
2022/06/08 00:30:44;;;;;;;4.13;2.43;;;19.70;99.90;;;;;;5068788;28;20233;-68
2022/06/08 00:33:10;;;;;;;1.90;1.80;;;19.70;99.90;;;;;;5058016;28;20457;-67
2022/06/08 00:35:36;;;;;;;2.00;1.80;;;19.60;99.90;;;;;;5071525;28;20211;-67
2022/06/08 00:38:02;;;;;;;2.40;2.20;;;19.70;99.90;;;;;;5070950;28;20219;-68
2022/06/08 00:40:59;;;;;;;2.13;2.03;;;19.70;99.90;;;;;;5052374;28;20442;-68
2022/06/08 00:43:25;;;;;;;4.47;1.87;;;19.60;99.90;;;;;;5068788;28;20211;-68
2022/06/08 00:45:51;;;;;;;2.23;2.13;;;19.60;99.90;;;;;;5068888;28;20593;-68
2022/06/08 00:48:18;;;;;;;2.50;2.30;;;19.60;99.90;;;;;;5069007;28;20587;-68
2022/06/08 00:50:52;;;;;;;1.90;1.80;;;19.60;99.90;;;;;;5066362;28;20462;-69
2022/06/08 00:53:30;;;;;;;1.90;1.80;;;19.50;99.90;;;;;;5070258;28;20469;-69
2022/06/08 00:55:58;;;;;;;2.50;2.10;;;19.40;99.90;;;;;;5068830;28;20461;-68
2022/06/08 00:58:29;;;;;;;2.00;1.90;;;19.40;99.90;;;;;;5069223;28;20501;-68
2022/06/08 01:00:56;;;;;;;4.70;2.07;;;19.40;99.90;;;;;;5068221;28;20450;-69
2022/06/08 01:03:22;;;;;;;1.83;1.73;;;19.40;99.90;;;;;;5070717;28;20454;-69
2022/06/08 01:05:58;;;;;;;2.30;2.10;;;19.20;99.90;;;;;;5052904;28;20480;-69
2022/06/08 01:08:37;;;;;;;2.13;2.03;;;19.20;99.90;;;;;;5077218;28;20441;-69
2022/06/08 01:11:11;;;;;;;2.33;1.70;;;19.30;99.90;;;;;;5052598;28;20488;-71
2022/06/08 01:13:39;;;;;;;3.03;2.30;;;19.20;99.90;;;;;;5050475;28;20454;-69
2022/06/08 01:16:11;;;;;;;2.60;2.40;;;19.20;99.90;;;;;;5064632;28;20449;-68
2022/06/08 01:18:38;;;;;;;2.47;1.90;;;19.20;99.90;;;;;;5066370;28;20995;-69
2022/06/08 01:21:22;;;;;;;7.23;2.37;;;19.20;99.90;;;;;;5051484;28;20521;-68
2022/06/08 01:24:07;;;;;;;2.50;2.30;;;19.00;99.90;;;;;;5053733;28;20450;-70
2022/06/08 01:26:50;;;;;;;2.50;2.30;;;18.90;99.90;;;;;;5070416;28;20442;-69
2022/06/08 01:29:21;;;;;;;2.27;2.03;;;18.90;99.90;;;;;;5059261;28;20469;-69
2022/06/08 01:32:11;;;;;;;2.30;2.13;;;18.90;99.90;;;;;;5051714;28;20457;-67
2022/06/08 01:34:37;;;;;;;2.60;2.40;;;18.90;99.90;;;;;;5065888;28;20851;-68
2022/06/08 01:37:31;;;;;;;2.70;2.50;;;18.80;99.90;;;;;;5064216;28;20472;-68
2022/06/08 01:40:23;;;;;;;2.47;2.27;;;18.90;99.90;;;;;;5048707;28;20302;-67
2022/06/08 01:43:16;;;;;;;4.27;2.03;;;18.90;99.90;;;;;;5060754;28;20452;-68
2022/06/08 01:45:51;;;;;;;2.00;1.90;;;18.90;99.90;;;;;;5060469;28;20485;-69
2022/06/08 01:48:40;;;;;;;2.67;2.47;;;18.80;99.90;;;;;;5058806;28;20537;-68
2022/06/08 01:51:18;;;;;;;2.63;2.40;;;18.60;99.90;;;;;;5050665;28;20818;-68
2022/06/08 01:53:50;;;;;;;2.60;2.40;;;18.50;99.90;;;;;;5057418;28;20817;-69
2022/06/08 01:56:39;;;;;;;2.67;2.43;;;18.50;99.90;;;;;;5067489;28;20452;-68
2022/06/08 01:59:14;;;;;;;2.50;1.90;;;18.50;99.90;;;;;;5069869;28;20479;-68
2022/06/08 02:01:51;;;;;;;2.20;2.10;;;18.50;99.90;;;;;;5057343;28;20452;-69
2022/06/08 02:04:38;;;;;;;2.37;2.17;;;18.60;99.90;;;;;;5084288;28;21062;-68
2022/06/08 02:07:13;;;;;;;3.00;2.03;;;18.60;99.90;;;;;;5068729;28;20469;-68
2022/06/08 02:10:00;;;;;;;2.23;2.00;;;18.60;99.90;;;;;;5043451;28;21042;-69
2022/06/08 02:12:30;;;;;;;2.03;1.90;;;18.50;99.90;;;;;;5056161;28;20470;-68
2022/06/08 02:15:20;;;;;;;2.27;2.10;;;18.50;99.90;;;;;;5078312;28;20463;-69
2022/06/08 02:17:55;;;;;;;2.40;2.20;;;18.40;99.90;;;;;;5061001;28;20466;-69
2022/06/08 02:20:37;;;;;;;2.53;2.00;;;18.40;99.90;;;;;;5070361;28;20460;-69
2022/06/08 02:23:11;;;;;;;5.03;2.87;;;18.30;99.90;;;;;;5050800;28;20532;-67
2022/06/08 02:25:45;;;;;;;4.30;2.60;;;18.30;99.90;;;;;;5067922;28;20473;-69
2022/06/08 02:28:18;;;;;;;3.33;2.10;;;18.30;99.90;;;;;;5068253;28;20464;-69
2022/06/08 02:30:54;;;;;;;2.40;2.07;;;18.30;99.90;;;;;;5067236;28;20500;-67
2022/06/08 02:36:30;;;;;;;2.07;1.93;;;18.20;99.90;;;;;;5063444;28;20480;-67
2022/06/08 02:39:03;;;;;;;2.30;1.80;;;18.20;99.90;;;;;;5048331;28;20454;-68
2022/06/08 02:41:32;;;;;;;3.60;2.07;;;18.20;99.90;;;;;;5061974;28;20486;-69
2022/06/08 02:44:03;;;;;;;3.60;2.50;;;18.20;99.90;;;;;;5062015;28;20461;-69
2022/06/08 02:46:56;;;;;;;4.50;3.10;;;18.20;99.90;;;;;;5071428;28;20461;-68
2022/06/08 02:49:28;;;;;;;4.40;2.10;;;18.20;99.90;;;;;;5055219;28;20469;-67
2022/06/08 02:52:09;;;;;;;2.13;1.93;;;18.10;99.90;;;;;;5071756;28;20460;-68
2022/06/08 02:54:36;;;;;;;4.93;2.07;;;18.10;99.90;;;;;;5051315;28;20461;-68
2022/06/08 02:57:21;;;;;;;2.00;1.80;;;18.10;99.90;;;;;;5068656;28;20446;-69
2022/06/08 02:59:57;;;;;;;2.03;1.93;;;18.10;99.90;;;;;;5060956;28;20457;-67
2022/06/08 03:02:33;;;;;;;4.43;1.80;;;18.00;99.90;;;;;;5054025;28;20544;-68
2022/06/08 03:05:03;;;;;;;3.10;2.20;;;18.00;99.90;;;;;;5055701;28;20464;-68
2022/06/08 03:07:36;;;;;;;2.40;2.13;;;18.00;99.90;;;;;;5056320;28;20465;-68
2022/06/08 03:10:06;;;;;;;2.40;2.10;;;18.00;99.90;;;;;;5068238;28;20536;-68
2022/06/08 03:12:35;;;;;;;2.00;1.90;;;18.00;99.90;;;;;;5068296;28;20532;-68
2022/06/08 03:15:04;;;;;;;1.77;1.67;;;18.00;99.90;;;;;;5059490;28;20537;-68
2022/06/08 03:17:32;;;;;;;2.40;1.90;;;18.00;99.90;;;;;;5069797;28;20453;-68
2022/06/08 03:20:00;;;;;;;2.13;2.00;;;18.00;99.90;;;;;;5071830;28;20988;-66
2022/06/08 03:22:26;;;;;;;1.77;1.67;;;18.10;99.90;;;;;;5064282;28;20454;-68
2022/06/08 03:24:53;;;;;;;3.70;2.23;;;18.10;99.90;;;;;;5062237;28;20899;-66
2022/06/08 03:27:20;;;;;;;4.60;1.90;;;18.10;99.90;;;;;;5057188;28;21004;-68
2022/06/08 03:29:50;;;;;;;1.77;1.60;;;18.10;99.90;;;;;;5057800;28;20455;-67
2022/06/08 03:32:16;;;;;;;1.70;1.60;;;18.10;99.90;;;;;;5068050;28;20457;-69
2022/06/08 03:34:42;;;;;;;2.10;1.90;;;18.10;99.90;;;;;;5071907;28;20462;-68
2022/06/08 03:37:09;;;;;;;2.53;1.73;;;18.10;99.90;;;;;;5075326;28;20555;-69
2022/06/08 03:39:39;;;;;;;2.33;2.23;;;18.10;99.90;;;;;;5073867;28;20505;-68
2022/06/08 03:42:05;;;;;;;2.20;2.00;;;18.00;99.90;;;;;;5071196;28;20493;-68
2022/06/08 03:44:32;;;;;;;3.97;2.00;;;18.00;99.90;;;;;;5064728;28;20222;-69
2022/06/08 03:47:07;;;;;;;2.03;1.90;;;18.10;99.90;;;;;;5075728;28;20449;-68
2022/06/08 03:49:34;;;;;;;2.10;1.90;;;18.10;99.90;;;;;;5065640;28;20227;-68
2022/06/08 03:52:01;;;;;;;2.03;1.80;;;18.10;99.90;;;;;;5076113;28;20867;-68
2022/06/08 03:54:36;;;;;;;2.43;2.03;;;18.10;99.90;;;;;;5069677;28;20461;-67
2022/06/08 03:57:04;;;;;;;3.80;1.83;;;18.10;99.90;;;;;;5074661;28;20456;-66
2022/06/08 03:59:35;;;;;;;2.13;2.03;;;18.10;99.90;;;;;;5073747;28;20568;-68
2022/06/08 04:02:03;;;;;;;2.33;2.13;;;18.10;99.90;;;;;;5055259;28;20811;-67
2022/06/08 04:04:29;;;;;;;2.20;1.67;;;18.10;99.90;;;;;;5047221;28;20833;-68
2022/06/08 04:06:56;;;;;;;1.77;1.67;;;18.10;99.90;;;;;;5069747;28;20499;-65
2022/06/08 04:09:22;;;;;;;1.70;1.60;;;18.10;99.90;;;;;;5069748;28;20473;-67
2022/06/08 04:11:50;;;;;;;2.47;1.93;;;18.00;99.90;;;;;;5061545;28;20220;-66
2022/06/08 04:14:16;;;;;;;2.27;2.07;;;18.00;99.90;;;;;;5063122;28;20466;-66
2022/06/08 04:16:44;;;;;;;3.30;1.77;;;18.00;99.90;;;;;;5069832;28;20687;-68
2022/06/08 04:19:12;;;;;;;8.93;1.80;;;18.00;99.90;;;;;;5053131;28;20458;-67
2022/06/08 04:21:39;;;;;;;3.67;2.33;;;18.00;99.90;;;;;;5056563;28;20811;-67
2022/06/08 04:24:10;;;;;;;2.80;2.00;;;18.00;99.90;;;;;;5064592;28;20443;-69
2022/06/08 04:26:37;;;;;;;2.13;2.03;;;18.00;99.90;;;;;;5063779;28;20488;-67
2022/06/08 04:29:07;;;;;;;4.10;2.53;;;18.00;99.90;;;;;;5061258;28;20548;-69
2022/06/08 04:31:35;;;;;;;2.97;1.90;;;18.00;99.90;;;;;;5052944;28;20500;-68
2022/06/08 04:34:10;;;;;;;3.03;2.10;;;18.00;99.90;;;;;;5054174;28;20464;-68
2022/06/08 04:36:38;;;;;;;3.03;2.30;;;18.00;99.90;;;;;;5068529;28;20497;-69
2022/06/08 04:39:05;;;;;;;2.30;2.10;;;18.00;99.90;;;;;;5069141;28;20513;-68
2022/06/08 04:41:33;;;;;;;3.70;2.10;;;18.00;99.90;;;;;;5052493;28;21029;-69
2022/06/08 04:43:59;;;;;;;2.17;2.00;;;18.00;99.90;;;;;;5069455;28;20462;-68
2022/06/08 04:46:27;;;;;;;2.50;1.60;;;18.00;99.90;;;;;;5054232;28;20466;-68
2022/06/08 04:48:55;;;;;;;3.33;1.83;;;18.00;99.90;;;;;;5069132;28;20545;-68
2022/06/08 04:51:25;;;;;;;2.10;2.00;;;17.90;99.90;;;;;;5068693;28;20461;-68
2022/06/08 04:53:51;;;;;;;2.73;2.17;;;17.90;99.90;;;;;;5068719;28;20822;-67
2022/06/08 04:56:18;;;;;;;2.40;1.83;;;17.90;99.90;;;;;;5056058;28;20453;-69
2022/06/08 04:58:46;;;;;;;2.30;2.10;;;17.90;99.90;;;;;;5066410;28;20489;-69
2022/06/08 05:01:12;;;;;;;2.03;1.77;;;17.90;99.90;;;;;;5074768;28;20532;-68
2022/06/08 05:03:38;;;;;;;2.40;2.20;;;18.00;99.90;;;;;;5051151;28;20541;-68
2022/06/08 05:06:05;;;;;;;3.37;1.63;;;18.00;99.90;;;;;;5064744;28;20738;-69
2022/06/08 05:08:34;;;;;;;2.93;2.50;;;18.00;99.90;;;;;;5067710;28;20445;-69
2022/06/08 05:11:04;;;;;;;1.80;1.70;;;18.00;99.90;;;;;;5072984;28;20471;-68
2022/06/08 05:13:31;;;;;;;2.67;2.00;;;18.00;99.90;;;;;;5067978;28;20449;-68
2022/06/08 05:16:04;;;;;;;3.10;2.10;;;18.00;99.90;;;;;;5049030;28;20584;-68
2022/06/08 05:18:31;;;;;;;1.83;1.73;;;18.00;99.90;;;;;;5068226;28;20454;-68
2022/06/08 05:21:00;;;;;;;2.33;2.13;;;18.00;99.90;;;;;;5071597;28;20972;-70
2022/06/08 05:23:31;;;;;;;2.43;2.23;;;18.00;99.90;;;;;;5050736;28;20477;-70
2022/06/08 05:25:59;;;;;;;2.43;2.20;;;18.00;99.90;;;;;;5073182;28;20444;-68
2022/06/08 05:28:26;;;;;;;2.30;2.10;;;18.10;99.90;;;;;;5063955;28;20969;-69
2022/06/08 05:30:56;;;;;;;3.90;2.00;;;18.10;99.90;;;;;;5040281;28;20447;-68
2022/06/08 05:33:26;;;;;;;2.20;2.00;;;18.10;99.90;;;;;;5064995;28;20468;-69
2022/06/08 05:35:54;;;;;;;2.40;2.20;;;18.10;99.90;;;;;;5061091;28;20454;-67
2022/06/08 05:38:21;;;;;;;2.23;2.00;;;18.10;99.90;;;;;;5068288;28;20464;-69
2022/06/08 05:40:48;;;;;;;2.30;2.10;;;18.10;99.90;;;;;;5055779;28;20538;-69
2022/06/08 05:43:15;;;;;;;2.70;1.87;;;18.10;99.90;;;;;;5057255;28;20508;-68
2022/06/08 05:45:47;;;;;;;2.33;1.50;;;18.10;99.90;;;;;;5050199;28;20472;-70
2022/06/08 05:48:14;;;;;;;3.00;1.80;;;18.00;99.90;;;;;;5052730;28;20458;-69
2022/06/08 05:50:42;;;;;;;5.23;2.20;;;18.10;99.90;;;;;;5048404;28;20477;-69
2022/06/08 05:53:15;;;;;;;2.53;1.77;;;18.10;99.90;;;;;;5064092;28;21015;-69
2022/06/08 05:55:41;;;;;;;2.40;1.77;;;18.10;99.90;;;;;;5070718;28;20449;-69
2022/06/08 05:58:08;;;;;;;3.80;2.07;;;18.10;99.90;;;;;;5062995;28;20457;-70
2022/06/08 06:00:37;;;;;;;1.73;1.63;;;18.10;99.90;;;;;;5061521;28;20457;-68
2022/06/08 06:03:03;;;;;;;1.80;1.70;;;18.10;99.90;;;;;;5058769;28;20450;-70
2022/06/08 06:05:32;;;;;;;2.83;2.00;;;18.10;99.90;;;;;;5065556;28;20449;-69
2022/06/08 06:08:01;;;;;;;2.40;2.20;;;18.20;99.90;;;;;;5059642;28;20489;-69
2022/06/08 06:10:37;;;;;;;4.07;1.67;;;18.20;99.90;;;;;;5054962;28;20545;-68
2022/06/08 06:13:04;;;;;;;1.60;1.50;;;18.20;99.90;;;;;;5055848;28;20465;-70
2022/06/08 06:15:41;;;;;;;1.80;1.70;;;18.20;99.90;;;;;;5067740;28;20480;-69
2022/06/08 06:18:07;;;;;;;2.13;1.83;;;18.20;99.90;;;;;;5060276;28;20458;-68
2022/06/08 06:20:34;;;;;;;6.63;2.00;;;18.20;99.90;;;;;;5062960;28;20463;-69
2022/06/08 06:23:14;;;;;;;1.67;1.53;;;18.20;99.90;;;;;;5058699;28;20449;-69
2022/06/08 06:25:51;;;;;;;2.00;1.70;;;18.20;99.90;;;;;;5060229;28;20485;-68
2022/06/08 06:28:43;;;;;;;2.33;1.90;;;18.20;99.90;;;;;;5064269;28;20556;-68
2022/06/08 06:31:52;;;;;;;1.87;1.77;;;18.20;99.90;;;;;;5064187;28;20456;-71
2022/06/08 06:34:24;;;;;;;4.57;1.80;;;18.30;99.90;;;;;;5031496;28;20493;-69
2022/06/08 06:36:53;;;;;;;1.60;1.50;;;18.30;99.90;;;;;;5061866;28;20544;-68
2022/06/08 06:39:21;;;;;;;1.67;1.57;;;18.30;99.90;;;;;;5069106;28;20454;-69
2022/06/08 06:41:50;;;;;;;1.80;1.50;;;18.30;99.90;;;;;;5065636;28;20437;-69
2022/06/08 06:44:20;;;;;;;4.40;2.07;;;18.40;99.90;;;;;;5067612;28;20517;-68
2022/06/08 06:47:05;;;;;;;2.73;1.93;;;18.40;99.90;;;;;;5051605;28;20519;-68
2022/06/08 06:49:39;;;;;;;5.13;1.60;;;18.40;99.90;;;;;;5064079;28;20469;-69
2022/06/08 06:52:08;;;;;;;2.00;1.53;;;18.50;99.90;;;;;;5071891;28;20456;-69
2022/06/08 06:54:34;;;;;;;2.10;1.90;;;18.50;99.90;;;;;;5061185;28;21068;-70
2022/06/08 06:57:00;;;;;;;2.00;1.80;;;18.60;99.90;;;;;;5060788;28;20469;-69
2022/06/08 06:59:28;;;;;;;2.63;1.40;;;18.60;99.90;;;;;;5064144;28;20508;-69
2022/06/08 07:01:54;;;;;;;2.17;2.03;;;18.60;99.90;;;;;;5067037;28;20744;-68
2022/06/08 07:04:21;;;;;;;4.50;2.20;;;18.60;99.90;;;;;;5075795;28;20458;-70
2022/06/08 07:06:48;;;;;;;2.90;1.80;;;18.60;99.90;;;;;;5059134;28;20453;-70
2022/06/08 07:09:14;;;;;;;2.67;1.80;;;18.70;99.90;;;;;;5049072;28;20492;-68
2022/06/08 07:11:43;;;;;;;2.03;1.80;;;18.80;99.90;;;;;;5066767;28;20477;-69
2022/06/08 07:14:18;;;;;;;4.30;2.10;;;18.80;99.90;;;;;;5055483;28;20470;-68
2022/06/08 07:16:47;;;;;;;3.07;1.93;;;18.90;99.90;;;;;;5062394;28;20472;-70
2022/06/08 07:19:14;;;;;;;1.50;1.40;;;19.00;99.90;;;;;;5070377;28;20545;-70
2022/06/08 07:21:41;;;;;;;4.63;1.63;;;19.10;99.90;;;;;;5063778;28;21046;-69
2022/06/08 07:24:09;;;;;;;3.07;2.30;;;19.20;99.90;;;;;;5073050;28;20465;-68
2022/06/08 07:26:35;;;;;;;1.57;1.47;;;19.30;99.90;;;;;;5062936;28;20461;-69
2022/06/08 07:29:01;;;;;;;3.20;1.70;;;19.50;99.90;;;;;;5065254;28;20522;-71
2022/06/08 07:31:27;;;;;;;3.90;1.80;;;19.50;99.90;;;;;;5065042;28;20238;-69
2022/06/08 07:33:53;;;;;;;2.00;1.80;;;19.60;99.90;;;;;;5079701;28;20219;-69
2022/06/08 07:36:20;;;;;;;3.33;1.43;;;19.60;99.90;;;;;;5063209;28;20530;-68
2022/06/08 07:38:46;;;;;;;2.27;2.00;;;19.60;99.90;;;;;;5076671;28;20460;-68
2022/06/08 07:41:11;;;;;;;2.93;2.07;;;19.70;99.90;;;;;;5066054;28;20965;-68
2022/06/08 07:43:37;;;;;;;3.07;1.97;;;19.70;99.90;;;;;;5062028;28;20226;-70
2022/06/08 07:46:05;;;;;;;4.90;1.50;;;19.80;99.90;;;;;;5068823;28;20212;-69
2022/06/08 07:51:16;;;;;;;1.70;1.60;;;20.00;99.90;;;;;;5063375;28;20481;-70
2022/06/08 07:53:41;;;;;;;4.43;2.00;;;20.10;99.90;;;;;;5060168;28;20466;-69
2022/06/08 07:56:07;;;;;;;2.47;1.70;;;20.20;99.90;;;;;;5074986;28;20597;-70
2022/06/08 07:58:34;;;;;;;1.80;1.70;;;20.30;99.90;;;;;;5077927;28;20233;-69
2022/06/08 08:01:00;;;;;;;3.00;1.80;;;20.40;99.90;;;;;;5057821;28;20465;-70
2022/06/08 08:03:25;;;;;;;2.30;1.67;;;20.40;99.90;;;;;;5068752;28;20219;-69
2022/06/08 08:05:52;;;;;;;2.17;1.97;;;20.50;99.90;;;;;;5075587;28;20273;-68
2022/06/08 08:08:19;;;;;;;6.77;1.90;;;20.60;99.90;;;;;;5065780;28;20246;-69
2022/06/08 08:10:46;;;;;;;2.50;1.90;;;20.70;99.90;;;;;;5060350;28;20481;-70
2022/06/08 08:13:12;;;;;;;4.67;2.07;;;20.80;99.90;;;;;;5053550;28;20474;-69
2022/06/08 08:15:39;;;;;;;7.30;3.53;;;20.90;99.90;;;;;;5065590;28;20474;-69
2022/06/08 08:18:05;;;;;;;1.70;1.33;;;21.00;99.90;;;;;;5067082;28;20464;-70
2022/06/08 08:20:32;;;;;;;1.77;1.60;;;21.10;99.90;;;;;;5071846;28;20454;-70
2022/06/08 08:22:58;;;;;;;2.70;1.47;;;21.10;99.90;;;;;;5057222;28;20477;-68
2022/06/08 08:25:25;;;;;;;4.57;2.10;;;21.20;99.90;;;;;;5060589;28;21074;-69
2022/06/08 08:27:52;;;;;;;2.40;1.60;;;21.30;99.90;;;;;;5067833;28;20472;-71
2022/06/08 08:30:22;;;;;;;1.80;1.70;;;21.40;99.90;;;;;;5059092;28;20486;-68
2022/06/08 08:32:48;;;;;;;2.70;1.60;;;21.50;99.90;;;;;;5060572;28;20454;-68
2022/06/08 08:35:16;;;;;;;3.57;1.63;;;21.70;99.90;;;;;;5060828;28;20473;-68
2022/06/08 08:37:43;;;;;;;3.17;1.70;;;21.70;99.90;;;;;;5064409;28;20481;-69
2022/06/08 08:40:31;;;;;;;1.80;1.70;;;21.80;99.90;;;;;;5070088;28;20570;-68
2022/06/08 08:42:57;;;;;;;5.33;1.63;;;21.80;99.90;;;;;;5065278;28;20457;-68
2022/06/08 08:45:23;;;;;;;3.13;1.70;;;21.80;99.90;;;;;;5078028;28;20461;-68
2022/06/08 08:48:06;;;;;;;5.67;1.83;;;21.80;99.90;;;;;;5060502;28;20446;-68
2022/06/08 08:50:41;;;;;;;5.03;1.93;;;21.80;99.90;;;;;;5060882;28;20468;-70
2022/06/08 08:53:26;;;;;;;2.97;1.57;;;21.80;99.90;;;;;;5067002;28;20455;-68
2022/06/08 08:56:05;;;;;;;9.40;2.27;;;21.90;99.90;;;;;;5062900;28;20454;-68
2022/06/08 08:58:38;;;;;;;1.97;1.47;;;21.90;99.90;;;;;;5056377;28;20476;-69
2022/06/08 09:01:15;;;;;;;4.60;1.90;;;21.90;99.90;;;;;;5073490;28;20469;-66
2022/06/08 09:03:45;;;;;;;1.83;1.70;;;21.90;99.90;;;;;;5065359;28;20441;-68
2022/06/08 09:06:13;;;;;;;3.10;1.60;;;21.90;99.90;;;;;;5066169;28;20533;-69
2022/06/08 09:08:41;;;;;;;1.80;1.70;;;21.90;99.90;;;;;;5062432;28;20468;-71
2022/06/08 09:11:19;;;;;;;1.80;1.70;;;21.90;99.90;;;;;;5085140;28;20505;-68
2022/06/08 09:13:54;;;;;;;2.40;2.20;;;21.90;99.90;;;;;;5062505;28;20969;-72
2022/06/08 09:16:39;;;;;;;1.93;1.73;;;21.90;99.90;;;;;;5063175;28;20461;-68
2022/06/08 09:19:36;;;;;;;7.27;1.70;;;22.00;99.90;;;;;;5063523;28;20444;-68
2022/06/08 09:22:02;;;;;;;2.40;1.90;;;22.00;99.90;;;;;;5060872;28;20524;-67
2022/06/08 09:24:36;;;;;;;1.57;1.47;;;22.00;99.90;;;;;;5053814;28;20461;-68
2022/06/08 09:27:14;;;;;;;3.00;1.80;;;22.10;99.90;;;;;;5064248;28;20445;-69
2022/06/08 09:30:09;;;;;;;4.00;1.90;;;22.10;99.90;;;;;;5061397;28;20500;-69
2022/06/08 09:32:39;;;;;;;2.00;1.60;;;22.10;99.90;;;;;;5058878;28;20464;-68
2022/06/08 09:35:26;;;;;;;3.30;1.90;;;22.10;99.90;;;;;;5063170;28;20479;-67
2022/06/08 09:37:57;;;;;;;3.00;1.93;;;22.30;99.90;;;;;;5074969;28;20502;-69
2022/06/08 09:40:36;;;;;;;1.63;1.20;;;22.30;99.90;;;;;;5065442;28;20453;-69
2022/06/08 09:43:20;;;;;;;3.07;1.63;;;22.30;99.90;;;;;;5057998;28;20586;-69
2022/06/08 09:45:54;;;;;;;2.90;1.57;;;22.40;99.50;;;;;;5068865;28;20602;-69
2022/06/08 09:51:50;;;;;;;1.80;1.70;;;22.50;99.30;;;;;;5064408;28;20512;-70
2022/06/08 09:54:33;;;;;;;1.60;1.50;;;22.60;98.60;;;;;;5054989;28;20467;-69
2022/06/08 09:57:32;;;;;;;4.80;1.70;;;22.70;99.10;;;;;;5066845;28;20541;-67
2022/06/08 10:00:31;;;;;;;1.60;1.43;;;22.90;98.40;;;;;;5060550;28;20520;-70
2022/06/08 10:03:29;;;;;;;2.27;1.63;;;23.00;98.10;;;;;;5053050;28;20445;-70
2022/06/08 10:06:13;;;;;;;2.70;2.43;;;23.10;97.70;;;;;;5059924;28;20450;-69
2022/06/08 10:08:53;;;;;;;2.83;1.60;;;23.20;97.30;;;;;;5056255;28;20485;-72
2022/06/08 10:11:34;;;;;;;2.97;1.70;;;23.20;97.00;;;;;;5061953;28;20464;-69
2022/06/08 10:14:22;;;;;;;2.73;1.67;;;23.20;97.00;;;;;;5058870;28;20448;-69
2022/06/08 10:17:05;;;;;;;4.50;1.77;;;23.30;97.10;;;;;;5060510;28;20970;-69
2022/06/08 10:19:57;;;;;;;2.30;1.77;;;23.30;97.30;;;;;;5061420;28;20582;-70
2022/06/08 10:22:28;;;;;;;1.97;1.80;;;23.40;97.40;;;;;;5069717;28;20867;-70
2022/06/08 10:25:16;;;;;;;2.60;1.77;;;23.40;97.30;;;;;;5064249;28;20540;-67
2022/06/08 10:27:54;;;;;;;1.60;1.50;;;23.50;97.20;;;;;;5059967;28;20475;-71
2022/06/08 10:30:43;;;;;;;2.00;1.73;;;23.50;97.20;;;;;;5072090;28;20901;-70
2022/06/08 10:33:21;;;;;;;1.93;1.60;;;23.60;96.80;;;;;;5041990;28;20484;-70
2022/06/08 10:35:54;;;;;;;2.60;1.47;;;23.60;96.60;;;;;;5061768;28;20472;-71
2022/06/08 10:38:28;;;;;;;1.70;1.60;;;23.50;96.70;;;;;;5062214;28;20465;-70
2022/06/08 10:44:00;;;;;;;2.03;1.60;;;23.50;96.60;;;;;;5055319;28;20463;-69
2022/06/08 10:46:46;;;;;;;1.67;1.37;;;23.50;96.40;;;;;;5060823;28;20454;-70
2022/06/08 10:49:25;;;;;;;7.70;2.67;;;23.50;96.30;;;;;;5072791;28;20472;-69
2022/06/08 10:52:18;;;;;;;5.03;1.50;;;23.50;95.90;;;;;;5062316;28;20472;-70
2022/06/08 10:54:57;;;;;;;3.90;1.80;;;23.40;95.90;;;;;;5056249;28;20527;-68
2022/06/08 10:57:49;;;;;;;1.60;1.50;;;23.40;96.10;;;;;;5053145;28;20461;-68
2022/06/08 11:00:21;;;;;;;1.53;1.43;;;23.40;96.10;;;;;;5059675;28;20824;-69
2022/06/08 11:03:03;;;;;;;2.80;1.70;;;23.40;95.90;;;;;;5069262;28;20862;-70
2022/06/08 11:05:33;;;;;;;3.33;1.97;;;23.30;95.70;;;;;;5059054;28;20464;-71
2022/06/08 11:07:59;;;;;;;2.50;1.67;;;23.30;95.80;;;;;;5059273;28;21012;-68
2022/06/08 11:10:44;;;;;;;2.00;1.80;;;23.30;95.50;;;;;;5060193;28;20525;-68
2022/06/08 11:13:25;;;;;;;5.80;1.40;;;23.20;95.20;;;;;;5060803;28;21011;-69
2022/06/08 11:16:08;;;;;;;2.50;2.30;;;23.20;95.30;;;;;;5056547;28;20536;-71
2022/06/08 11:18:58;;;;;;;1.60;1.50;;;23.10;95.20;;;;;;5075557;28;20465;-69
2022/06/08 11:21:41;;;;;;;1.60;1.50;;;23.10;95.00;;;;;;5058993;28;20457;-70
2022/06/08 11:24:32;;;;;;;2.97;1.53;;;23.00;94.80;;;;;;5068885;28;20448;-69
2022/06/08 11:27:10;;;;;;;3.47;1.40;;;23.00;94.90;;;;;;5063821;28;20453;-68
2022/06/08 11:29:44;;;;;;;1.93;1.53;;;22.90;94.80;;;;;;5053323;28;21007;-71
2022/06/08 11:32:36;;;;;;;1.47;1.37;;;22.90;94.90;;;;;;5056179;28;20465;-69
2022/06/08 11:35:15;;;;;;;2.93;1.80;;;22.90;95.20;;;;;;5041170;28;20977;-69
2022/06/08 11:38:08;;;;;;;2.17;1.70;;;22.90;95.40;;;;;;5058787;28;20879;-69
2022/06/08 11:40:36;;;;;;;3.37;1.43;;;22.90;95.00;;;;;;5064728;28;20461;-69
2022/06/08 11:43:10;;;;;;;2.23;1.60;;;22.80;95.10;;;;;;5063688;28;20446;-70
2022/06/08 11:45:44;;;;;;;1.97;1.70;;;22.80;95.20;;;;;;5051848;28;20449;-71
2022/06/08 11:48:15;;;;;;;2.23;1.40;;;22.70;94.90;;;;;;5064283;28;20543;-68
2022/06/08 11:50:47;;;;;;;3.37;1.80;;;22.80;95.30;;;;;;5061270;28;21137;-70
2022/06/08 11:53:35;;;;;;;1.50;1.17;;;22.80;95.20;;;;;;5058008;28;20493;-70
2022/06/08 11:56:39;;;;;;;2.57;1.80;;;22.80;95.40;;;;;;5063054;28;20465;-69
2022/06/08 11:59:06;;;;;;;1.93;1.80;;;22.80;95.50;;;;;;5022588;28;20466;-72
2022/06/08 12:01:59;;;;;;;1.97;1.70;;;22.80;95.80;;;;;;5050667;28;21050;-69
2022/06/08 12:04:30;;;;;;;2.73;1.63;;;22.70;95.60;;;;;;5075436;28;20458;-68
2022/06/08 12:06:57;;;;;;;1.40;1.30;;;22.70;95.70;;;;;;5051136;28;20457;-69
2022/06/08 12:09:34;;;;;;;2.33;1.70;;;22.70;95.80;;;;;;5047183;28;20516;-69
2022/06/08 12:12:06;;;;;;;1.70;1.60;;;22.80;96.00;;;;;;5058855;28;20456;-71
2022/06/08 12:14:35;;;;;;;3.57;1.70;;;22.80;96.10;;;;;;5058572;28;20514;-72
2022/06/08 12:17:04;;;;;;;2.90;1.80;;;22.70;96.00;;;;;;5061007;28;20445;-70
2022/06/08 12:19:51;;;;;;;2.00;1.90;;;22.70;96.10;;;;;;5061155;28;20460;-70
2022/06/08 12:22:19;;;;;;;3.20;1.93;;;22.70;96.20;;;;;;5062732;28;20984;-69
2022/06/08 12:25:05;;;;;;;4.37;1.63;;;22.70;96.20;;;;;;5062390;28;20449;-68
2022/06/08 12:27:44;;;;;;;2.10;1.73;;;22.80;96.30;;;;;;5064834;28;20559;-71
2022/06/08 12:30:29;;;;;;;3.27;1.73;;;22.80;96.10;;;;;;5060207;28;20461;-68
2022/06/08 12:33:01;;;;;;;2.90;1.13;;;22.70;96.10;;;;;;5061591;28;20468;-69
2022/06/08 12:35:31;;;;;;;2.33;1.40;;;22.70;96.10;;;;;;5064601;28;20492;-69
2022/06/08 12:38:32;;;;;;;1.60;1.50;;;22.70;96.20;;;;;;5063333;28;20457;-69
2022/06/08 12:40:57;;;;;;;1.93;1.50;;;22.70;96.20;;;;;;5047964;28;20969;-70
2022/06/08 12:43:33;;;;;;;2.33;1.50;;;22.70;96.20;;;;;;5063844;28;20510;-70
2022/06/08 12:46:12;;;;;;;2.43;1.23;;;22.70;96.20;;;;;;5060600;28;20230;-70
2022/06/08 12:48:38;;;;;;;3.10;1.70;;;22.70;96.30;;;;;;5079943;28;20846;-69
2022/06/08 12:51:25;;;;;;;1.97;1.30;;;22.70;96.60;;;;;;5063929;28;20522;-68
2022/06/08 12:53:52;;;;;;;1.70;1.60;;;22.60;98.00;;;;;;5064186;28;20214;-70
2022/06/08 12:56:18;;;;;;;1.50;1.40;;;22.60;98.40;;;;;;5066651;28;21006;-69
2022/06/08 12:58:48;;;;;;;4.50;1.83;;;22.60;98.70;;;;;;5058570;28;20533;-70
2022/06/08 13:01:14;;;;;;;1.70;1.30;;;22.50;98.50;;;;;;5059094;28;20469;-69
2022/06/08 13:03:41;;;;;;;2.00;1.70;;;22.50;98.60;;;;;;5066314;28;20461;-70
2022/06/08 13:06:07;;;;;;;1.77;1.67;;;22.40;99.00;;;;;;5065348;28;20890;-69
2022/06/08 13:08:34;;;;;;;1.97;1.53;;;22.40;99.30;;;;;;5072486;28;20594;-68
2022/06/08 13:11:04;;;;;;;2.53;1.70;;;22.40;99.10;;;;;;5060851;28;21003;-69
2022/06/08 13:13:36;;;;;;;4.00;1.80;;;22.30;99.20;;;;;;5062170;28;20988;-70
2022/06/08 13:16:07;;;;;;;3.40;1.90;;;22.40;99.40;;;;;;5065362;28;20464;-69
2022/06/08 13:18:33;;;;;;;1.90;1.50;;;22.30;99.60;;;;;;5074294;28;20484;-68
2022/06/08 13:20:58;;;;;;;3.57;1.60;;;22.40;99.50;;;;;;5079635;28;20462;-68
2022/06/08 13:23:25;;;;;;;3.03;1.77;;;22.30;99.90;;;;;;5062038;28;20468;-70
2022/06/08 13:25:54;;;;;;;5.20;2.20;;;22.20;99.90;;;;;;5066762;28;20708;-69
2022/06/08 13:28:33;;;;;;;5.80;2.37;;;22.30;99.90;;;;;;5063216;28;20456;-69
2022/06/08 13:31:00;;;;;;;9.10;2.50;;;22.30;99.90;;;;;;5058874;28;20470;-70